Time;durP1;ratioP1;P1;durP2;ratioP2;P2;SDS_P1;SDS_P2;PMS_P1;PMS_P2;Temp;Humidity;BMP_temperature;BMP_pressure;BME280_temperature;BME280_humidity;BME280_pressure;Samples;Min_cycle;Max_cycle;Signal;HPM_P1;HPM_P2
2021/08/08 00:01:58;;;;;;;6.28;5.68;;;17.40;99.90;;;;;;5230577;28;20289;-65
2021/08/08 00:04:30;;;;;;;7.13;5.57;;;17.40;99.90;;;;;;5229699;28;20237;-63
2021/08/08 00:07:02;;;;;;;8.95;5.72;;;17.40;99.90;;;;;;5229621;28;20213;-64
2021/08/08 00:09:34;;;;;;;6.22;5.63;;;17.40;99.90;;;;;;5212992;28;20234;-65
2021/08/08 00:12:09;;;;;;;8.85;5.85;;;17.40;99.90;;;;;;5231027;28;20637;-62
2021/08/08 00:14:41;;;;;;;7.65;5.50;;;17.50;99.90;;;;;;5230442;28;20299;-62
2021/08/08 00:17:14;;;;;;;8.77;5.72;;;17.50;99.90;;;;;;5229502;28;20205;-63
2021/08/08 00:19:46;;;;;;;6.18;5.22;;;17.40;99.90;;;;;;5230332;28;20236;-63
2021/08/08 00:22:18;;;;;;;10.85;5.35;;;17.40;99.90;;;;;;5229289;28;20687;-58
2021/08/08 00:24:50;;;;;;;6.15;5.15;;;17.40;99.90;;;;;;5230218;28;20225;-62
2021/08/08 00:27:22;;;;;;;5.07;4.57;;;17.50;99.90;;;;;;5229391;28;20201;-65
2021/08/08 00:29:54;;;;;;;6.68;4.57;;;17.50;99.90;;;;;;5229187;28;20237;-64
2021/08/08 00:32:31;;;;;;;6.78;4.53;;;17.50;99.90;;;;;;5229563;28;20206;-64
2021/08/08 00:35:03;;;;;;;5.68;5.07;;;17.50;99.90;;;;;;5228901;28;20233;-62
2021/08/08 00:37:37;;;;;;;9.25;5.55;;;17.50;99.90;;;;;;5229579;28;20259;-62
2021/08/08 00:40:10;;;;;;;8.52;5.60;;;17.50;99.90;;;;;;5228791;28;20233;-65
2021/08/08 00:42:49;;;;;;;6.10;4.80;;;17.50;99.90;;;;;;5212611;28;20282;-63
2021/08/08 00:45:21;;;;;;;6.53;5.05;;;17.50;99.90;;;;;;5229980;28;20229;-60
2021/08/08 00:47:55;;;;;;;6.75;4.82;;;17.50;99.90;;;;;;5230173;28;20232;-63
2021/08/08 00:50:32;;;;;;;5.93;5.00;;;17.50;99.90;;;;;;5229646;28;20236;-66
2021/08/08 00:53:07;;;;;;;6.93;5.18;;;17.60;99.90;;;;;;5228905;28;20193;-62
2021/08/08 00:55:40;;;;;;;7.28;4.80;;;17.60;99.90;;;;;;5229963;28;20232;-62
2021/08/08 00:58:12;;;;;;;6.75;5.07;;;17.60;99.90;;;;;;5229361;28;20237;-62
2021/08/08 01:00:49;;;;;;;6.78;4.88;;;17.60;99.90;;;;;;5212003;28;20552;-63
2021/08/08 01:03:23;;;;;;;5.70;4.63;;;17.70;99.90;;;;;;5228227;28;20273;-62
2021/08/08 01:06:09;;;;;;;5.30;4.55;;;17.70;99.90;;;;;;5229303;28;20233;-62
2021/08/08 01:09:03;;;;;;;6.20;4.63;;;17.70;99.90;;;;;;5229305;28;20205;-63
2021/08/08 01:11:36;;;;;;;9.10;4.32;;;17.70;99.90;;;;;;5229181;28;20206;-65
2021/08/08 01:14:10;;;;;;;5.15;4.10;;;17.70;99.90;;;;;;5229262;28;20208;-63
2021/08/08 01:16:44;;;;;;;4.97;4.47;;;17.70;99.90;;;;;;5229540;28;20204;-63
2021/08/08 01:19:20;;;;;;;5.25;4.18;;;17.70;99.90;;;;;;5229615;28;20283;-61
2021/08/08 01:21:57;;;;;;;7.57;4.82;;;17.70;99.90;;;;;;5229492;28;20727;-63
2021/08/08 01:24:32;;;;;;;5.93;4.95;;;17.70;99.90;;;;;;5227854;28;20209;-60
2021/08/08 01:27:05;;;;;;;7.93;4.93;;;17.70;99.90;;;;;;5229183;28;20196;-64
2021/08/08 01:29:37;;;;;;;6.10;4.53;;;17.70;99.90;;;;;;5228889;28;20645;-61
2021/08/08 01:32:09;;;;;;;5.03;4.32;;;17.60;99.90;;;;;;5228106;28;20244;-61
2021/08/08 01:34:41;;;;;;;7.53;4.50;;;17.60;99.90;;;;;;5227977;28;20210;-62
2021/08/08 01:37:20;;;;;;;5.88;4.82;;;17.50;99.90;;;;;;5228276;28;20186;-62
2021/08/08 01:40:00;;;;;;;5.75;4.45;;;17.50;99.90;;;;;;5229333;28;20573;-61
2021/08/08 01:42:35;;;;;;;6.60;5.13;;;17.50;99.90;;;;;;5231082;28;20223;-65
2021/08/08 01:45:09;;;;;;;6.72;4.47;;;17.50;99.90;;;;;;5229115;28;20235;-64
2021/08/08 01:47:49;;;;;;;5.82;4.55;;;17.50;99.90;;;;;;5229324;28;20511;-62
2021/08/08 01:50:26;;;;;;;6.17;4.20;;;17.50;99.90;;;;;;5229130;28;20282;-60
2021/08/08 01:53:04;;;;;;;5.13;4.45;;;17.50;99.90;;;;;;5228092;28;20215;-64
2021/08/08 01:55:39;;;;;;;8.40;4.82;;;17.40;99.90;;;;;;5228551;28;20240;-65
2021/08/08 01:58:11;;;;;;;6.10;4.60;;;17.40;99.90;;;;;;5228317;28;20306;-62
2021/08/08 02:00:43;;;;;;;5.30;4.60;;;17.40;99.90;;;;;;5228434;28;20233;-62
2021/08/08 02:03:15;;;;;;;6.95;4.80;;;17.30;99.90;;;;;;5228566;28;20641;-61
2021/08/08 02:05:47;;;;;;;5.78;4.70;;;17.30;99.90;;;;;;5228874;28;20236;-64
2021/08/08 02:08:21;;;;;;;5.82;4.60;;;17.30;99.90;;;;;;5228524;28;20205;-63
2021/08/08 02:10:53;;;;;;;5.47;4.40;;;17.20;99.90;;;;;;5227295;28;20225;-62
2021/08/08 02:13:25;;;;;;;5.50;4.10;;;17.30;99.90;;;;;;5228468;28;20262;-62
2021/08/08 02:15:58;;;;;;;6.82;4.53;;;17.30;99.90;;;;;;5228399;28;20303;-67
2021/08/08 02:18:30;;;;;;;5.00;4.30;;;17.30;99.90;;;;;;5211313;28;20300;-66
2021/08/08 02:21:04;;;;;;;5.22;4.22;;;17.30;99.90;;;;;;5228873;28;20668;-64
2021/08/08 02:23:43;;;;;;;5.40;4.20;;;17.20;99.90;;;;;;5228263;28;20220;-63
2021/08/08 02:26:18;;;;;;;7.33;4.67;;;17.30;99.90;;;;;;5228246;28;20236;-61
2021/08/08 02:28:50;;;;;;;7.18;4.85;;;17.30;99.90;;;;;;5228520;28;20492;-64
2021/08/08 02:31:24;;;;;;;6.40;4.65;;;17.30;99.90;;;;;;5228339;28;20237;-63
2021/08/08 02:33:58;;;;;;;8.25;4.53;;;17.40;99.90;;;;;;5228554;28;20204;-61
2021/08/08 02:36:31;;;;;;;8.75;4.97;;;17.40;99.90;;;;;;5226897;28;20233;-64
2021/08/08 02:39:05;;;;;;;5.78;4.65;;;17.40;99.90;;;;;;5228357;28;20217;-61
2021/08/08 02:41:39;;;;;;;5.43;4.55;;;17.40;99.90;;;;;;5227017;28;20279;-66
2021/08/08 02:44:12;;;;;;;5.85;4.70;;;17.40;99.90;;;;;;5228143;28;20217;-62
2021/08/08 02:46:43;;;;;;;4.55;3.83;;;17.50;99.90;;;;;;5228034;28;20241;-62
2021/08/08 02:49:15;;;;;;;5.53;3.90;;;17.50;99.90;;;;;;5228337;28;20306;-64
2021/08/08 02:51:47;;;;;;;5.50;4.40;;;17.50;99.90;;;;;;5230298;28;20328;-62
2021/08/08 02:54:22;;;;;;;6.70;4.03;;;17.50;99.90;;;;;;5232306;28;20201;-64
2021/08/08 02:56:54;;;;;;;4.10;3.35;;;17.50;99.90;;;;;;5231516;28;20243;-62
2021/08/08 02:59:26;;;;;;;6.67;3.80;;;17.50;99.90;;;;;;5232124;28;20248;-62
2021/08/08 03:02:01;;;;;;;4.97;3.70;;;17.50;99.90;;;;;;5230768;28;20244;-64
2021/08/08 03:04:33;;;;;;;4.15;2.97;;;17.60;99.90;;;;;;5214498;28;20236;-63
2021/08/08 03:07:05;;;;;;;4.35;3.13;;;17.60;99.90;;;;;;5234857;28;20236;-66
2021/08/08 03:09:37;;;;;;;3.95;3.25;;;17.60;99.90;;;;;;5214766;28;20216;-64
2021/08/08 03:12:09;;;;;;;4.75;3.10;;;17.60;99.90;;;;;;5230996;28;20236;-58
2021/08/08 03:14:43;;;;;;;6.57;3.30;;;17.60;99.90;;;;;;5230646;28;20213;-61
2021/08/08 03:17:15;;;;;;;4.75;3.42;;;17.60;99.90;;;;;;5230591;28;20291;-62
2021/08/08 03:19:49;;;;;;;3.40;3.08;;;17.60;99.90;;;;;;5230534;28;20216;-62
2021/08/08 03:22:21;;;;;;;6.25;3.30;;;17.60;99.90;;;;;;5230264;28;20238;-59
2021/08/08 03:24:53;;;;;;;4.60;3.20;;;17.50;99.90;;;;;;5230130;28;20307;-63
2021/08/08 03:27:28;;;;;;;4.10;3.10;;;17.50;99.90;;;;;;5230445;28;20664;-62
2021/08/08 03:29:59;;;;;;;4.43;3.08;;;17.50;99.90;;;;;;5231328;28;20613;-60
2021/08/08 03:32:31;;;;;;;4.18;2.72;;;17.40;99.90;;;;;;5230130;28;20512;-61
2021/08/08 03:35:07;;;;;;;5.20;3.40;;;17.40;99.90;;;;;;5230180;28;20202;-62
2021/08/08 03:37:41;;;;;;;7.63;3.83;;;17.40;99.90;;;;;;5230154;28;20231;-60
2021/08/08 03:40:17;;;;;;;7.05;3.88;;;17.30;99.90;;;;;;5231055;28;20198;-60
2021/08/08 03:42:49;;;;;;;4.47;3.42;;;17.30;99.90;;;;;;5230043;28;20225;-61
2021/08/08 03:45:21;;;;;;;4.63;3.60;;;17.30;99.90;;;;;;5230923;28;20220;-61
2021/08/08 03:47:53;;;;;;;6.28;3.65;;;17.20;99.90;;;;;;5229845;28;20252;-61
2021/08/08 03:50:25;;;;;;;5.10;4.05;;;17.10;99.90;;;;;;5230731;28;20197;-60
2021/08/08 03:52:57;;;;;;;6.40;3.70;;;17.10;99.90;;;;;;5213489;28;20244;-61
2021/08/08 03:55:29;;;;;;;8.93;4.13;;;17.10;99.90;;;;;;5213531;28;20209;-63
2021/08/08 03:58:01;;;;;;;4.78;4.07;;;17.10;99.90;;;;;;5230369;28;20260;-66
2021/08/08 04:00:33;;;;;;;5.03;3.78;;;17.00;99.90;;;;;;5213397;28;20272;-61
2021/08/08 04:03:06;;;;;;;5.40;3.50;;;17.00;99.90;;;;;;5228853;28;20700;-66
2021/08/08 04:05:38;;;;;;;5.00;3.63;;;17.00;99.90;;;;;;5212986;28;20215;-62
2021/08/08 04:08:10;;;;;;;4.50;3.60;;;17.00;99.90;;;;;;5230204;28;20240;-64
2021/08/08 04:10:47;;;;;;;5.90;3.67;;;17.00;99.90;;;;;;5229129;28;20211;-65
2021/08/08 04:13:19;;;;;;;4.97;3.80;;;16.90;99.90;;;;;;5230282;28;20493;-62
2021/08/08 04:15:53;;;;;;;6.95;4.05;;;16.90;99.90;;;;;;5230467;28;20550;-61
2021/08/08 04:18:25;;;;;;;5.53;3.27;;;16.90;99.90;;;;;;5230130;28;20231;-61
2021/08/08 04:20:57;;;;;;;4.75;3.65;;;16.90;99.90;;;;;;5229187;28;20209;-63
2021/08/08 04:23:28;;;;;;;5.93;3.80;;;16.90;99.90;;;;;;5230007;28;20299;-63
2021/08/08 04:26:00;;;;;;;4.87;3.40;;;16.90;99.90;;;;;;5230157;28;20213;-63
2021/08/08 04:28:39;;;;;;;5.17;3.40;;;16.90;99.90;;;;;;5229620;28;20236;-63
2021/08/08 04:31:13;;;;;;;5.13;3.30;;;16.80;99.90;;;;;;5229501;28;20616;-63
2021/08/08 04:33:45;;;;;;;5.37;3.60;;;16.80;99.90;;;;;;5229072;28;20310;-63
2021/08/08 04:36:17;;;;;;;6.43;3.40;;;16.80;99.90;;;;;;5228732;28;20538;-62
2021/08/08 04:38:49;;;;;;;4.67;3.50;;;16.80;99.90;;;;;;5229398;28;20552;-61
2021/08/08 04:41:21;;;;;;;6.33;3.80;;;16.80;99.90;;;;;;5229738;28;20219;-63
2021/08/08 04:43:54;;;;;;;6.17;3.67;;;16.80;99.90;;;;;;5229434;28;20241;-63
2021/08/08 04:46:26;;;;;;;6.27;4.00;;;16.80;99.90;;;;;;5230434;28;20474;-62
2021/08/08 04:48:58;;;;;;;5.17;3.63;;;16.80;99.90;;;;;;5229670;28;20540;-60
2021/08/08 04:51:32;;;;;;;5.70;3.70;;;16.70;99.90;;;;;;5229999;28;20208;-63
2021/08/08 04:54:04;;;;;;;5.83;3.67;;;16.70;99.90;;;;;;5228752;28;20240;-59
2021/08/08 04:56:36;;;;;;;5.07;3.67;;;16.70;99.90;;;;;;5229652;28;20208;-64
2021/08/08 04:59:10;;;;;;;7.73;4.00;;;16.60;99.90;;;;;;5229117;28;20252;-63
2021/08/08 05:01:42;;;;;;;4.13;3.53;;;16.60;99.90;;;;;;5229681;28;20215;-62
2021/08/08 05:04:14;;;;;;;6.67;3.73;;;16.60;99.90;;;;;;5244957;28;20239;-65
2021/08/08 05:06:46;;;;;;;8.30;3.63;;;16.50;99.90;;;;;;5215862;28;20202;-64
2021/08/08 05:09:25;;;;;;;5.43;3.50;;;16.50;99.90;;;;;;5228434;28;20302;-62
2021/08/08 05:11:58;;;;;;;8.00;4.27;;;16.50;99.90;;;;;;5228656;28;20655;-61
2021/08/08 05:14:32;;;;;;;6.23;4.20;;;16.40;99.90;;;;;;5229689;28;20533;-63
2021/08/08 05:17:04;;;;;;;4.93;4.00;;;16.40;99.90;;;;;;5228493;28;20567;-63
2021/08/08 05:19:41;;;;;;;6.07;4.00;;;16.40;99.90;;;;;;5228218;28;20205;-67
2021/08/08 05:22:13;;;;;;;5.40;4.63;;;16.40;99.90;;;;;;5229141;28;20223;-61
2021/08/08 05:24:47;;;;;;;5.63;4.70;;;16.40;99.90;;;;;;5244594;28;20652;-62
2021/08/08 05:27:22;;;;;;;6.00;4.67;;;16.40;99.90;;;;;;5228985;28;20209;-60
2021/08/08 05:29:53;;;;;;;10.53;4.93;;;16.40;99.90;;;;;;5228588;28;20540;-62
2021/08/08 05:32:25;;;;;;;7.80;4.63;;;16.40;99.90;;;;;;5227720;28;20201;-62
2021/08/08 05:35:00;;;;;;;7.00;4.67;;;16.40;99.90;;;;;;5229203;28;20624;-62
2021/08/08 05:37:31;;;;;;;5.27;4.40;;;16.40;99.90;;;;;;5229326;28;20239;-63
2021/08/08 05:40:07;;;;;;;4.30;3.83;;;16.40;99.90;;;;;;5211719;28;20619;-63
2021/08/08 05:42:50;;;;;;;16.83;6.80;;;16.50;99.90;;;;;;5229028;28;20205;-63
2021/08/08 05:45:22;;;;;;;6.77;5.10;;;16.50;99.90;;;;;;5229233;28;20233;-58
2021/08/08 05:47:58;;;;;;;5.57;4.70;;;16.50;99.90;;;;;;5229008;28;20292;-63
2021/08/08 05:50:32;;;;;;;6.90;4.80;;;16.50;99.90;;;;;;5227523;28;20197;-62
2021/08/08 05:53:04;;;;;;;7.27;4.77;;;16.50;99.90;;;;;;5228799;28;20212;-61
2021/08/08 05:55:36;;;;;;;6.10;5.23;;;16.50;99.90;;;;;;5227774;28;20296;-60
2021/08/08 05:58:11;;;;;;;6.20;4.90;;;16.60;99.90;;;;;;5211340;28;20676;-64
2021/08/08 06:00:43;;;;;;;8.20;5.50;;;16.60;99.90;;;;;;5228832;28;20185;-63
2021/08/08 06:03:15;;;;;;;8.10;5.40;;;16.60;99.90;;;;;;5227839;28;20201;-61
2021/08/08 06:05:47;;;;;;;7.77;5.07;;;16.50;99.90;;;;;;5211428;28;20208;-67
2021/08/08 06:08:22;;;;;;;13.10;5.10;;;16.50;99.90;;;;;;5227385;28;20201;-58
2021/08/08 06:10:54;;;;;;;8.87;4.77;;;16.50;99.90;;;;;;5227923;28;20582;-61
2021/08/08 06:13:26;;;;;;;7.47;4.87;;;16.50;99.90;;;;;;5227252;28;20221;-60
2021/08/08 06:15:58;;;;;;;7.60;5.00;;;16.50;99.90;;;;;;5228852;28;20560;-61
2021/08/08 06:18:32;;;;;;;7.33;4.93;;;16.60;99.90;;;;;;5228713;28;20296;-63
2021/08/08 06:21:07;;;;;;;6.73;4.97;;;16.50;99.90;;;;;;5228647;28;20194;-62
2021/08/08 06:23:39;;;;;;;6.93;4.47;;;16.60;99.90;;;;;;5227695;28;20243;-62
2021/08/08 06:26:10;;;;;;;9.83;4.97;;;16.60;99.90;;;;;;5230013;28;20205;-64
2021/08/08 06:28:42;;;;;;;6.70;5.03;;;16.70;99.90;;;;;;5232558;28;20206;-62
2021/08/08 06:31:14;;;;;;;8.77;5.33;;;16.80;99.90;;;;;;5247907;28;20558;-62
2021/08/08 06:33:49;;;;;;;8.43;5.17;;;16.80;99.90;;;;;;5231952;28;20213;-63
2021/08/08 06:36:21;;;;;;;9.20;5.20;;;16.90;99.90;;;;;;5233041;28;20496;-65
2021/08/08 06:38:57;;;;;;;8.10;5.10;;;16.90;99.90;;;;;;5231431;28;20236;-60
2021/08/08 06:41:29;;;;;;;6.97;4.63;;;17.00;99.90;;;;;;5232443;28;20193;-58
2021/08/08 06:44:04;;;;;;;7.40;5.53;;;17.00;99.90;;;;;;5231955;28;20278;-59
2021/08/08 06:46:35;;;;;;;6.70;4.88;;;17.10;99.90;;;;;;5214806;28;20259;-58
2021/08/08 06:49:10;;;;;;;6.80;4.38;;;17.10;99.90;;;;;;5247505;28;20261;-59
2021/08/08 06:51:42;;;;;;;6.87;4.43;;;17.10;99.90;;;;;;5232303;28;20525;-63
2021/08/08 06:54:14;;;;;;;5.63;4.22;;;17.10;99.90;;;;;;5214842;28;20237;-64
2021/08/08 06:56:46;;;;;;;4.35;3.92;;;17.10;99.90;;;;;;5214828;28;20488;-65
2021/08/08 06:59:18;;;;;;;6.22;4.45;;;17.10;99.90;;;;;;5230512;28;20249;-70
2021/08/08 07:01:50;;;;;;;6.60;4.43;;;17.10;99.90;;;;;;5232295;28;20292;-66
2021/08/08 07:04:23;;;;;;;5.40;4.10;;;17.10;99.90;;;;;;5230585;28;20233;-62
2021/08/08 07:06:55;;;;;;;5.30;4.03;;;17.10;99.90;;;;;;5231036;28;20268;-63
2021/08/08 07:09:27;;;;;;;8.17;4.30;;;17.10;99.90;;;;;;5232029;28;20652;-66
2021/08/08 07:11:59;;;;;;;4.57;3.87;;;17.10;99.90;;;;;;5230726;28;20213;-60
2021/08/08 07:14:33;;;;;;;5.43;4.20;;;17.10;99.90;;;;;;5231777;28;20230;-64
2021/08/08 07:17:06;;;;;;;4.30;3.90;;;17.20;99.90;;;;;;5231891;28;20604;-64
2021/08/08 07:19:39;;;;;;;5.13;3.73;;;17.30;99.90;;;;;;5230413;28;20225;-64
2021/08/08 07:22:11;;;;;;;4.90;3.13;;;17.50;99.90;;;;;;5230645;28;20478;-64
2021/08/08 07:24:51;;;;;;;6.38;3.67;;;17.60;99.90;;;;;;5231585;28;20233;-65
2021/08/08 07:27:26;;;;;;;6.17;3.20;;;17.70;99.90;;;;;;5231945;28;20186;-66
2021/08/08 07:30:01;;;;;;;9.35;4.00;;;17.80;99.90;;;;;;5231083;28;20228;-64
2021/08/08 07:32:33;;;;;;;5.53;3.75;;;17.90;99.90;;;;;;5231332;28;20189;-64
2021/08/08 07:35:08;;;;;;;4.85;3.17;;;18.00;99.90;;;;;;5231463;28;20225;-64
2021/08/08 07:37:40;;;;;;;4.47;2.95;;;18.20;99.90;;;;;;5230194;28;20307;-64
2021/08/08 07:40:14;;;;;;;5.18;2.90;;;18.40;99.90;;;;;;5213676;28;20233;-63
2021/08/08 07:42:50;;;;;;;4.18;2.95;;;18.70;99.90;;;;;;5214115;28;20205;-66
2021/08/08 07:45:22;;;;;;;4.50;3.22;;;19.00;99.90;;;;;;5229707;28;20250;-66
2021/08/08 07:47:54;;;;;;;3.97;2.70;;;19.30;99.90;;;;;;5229769;28;20219;-62
2021/08/08 07:50:26;;;;;;;4.97;2.75;;;19.70;99.90;;;;;;5246210;28;20229;-62
2021/08/08 07:52:58;;;;;;;4.65;2.88;;;20.30;99.90;;;;;;5213173;28;20224;-66
2021/08/08 07:55:31;;;;;;;4.40;2.60;;;21.00;99.90;;;;;;5230941;28;20232;-63
2021/08/08 07:58:03;;;;;;;2.78;2.08;;;21.50;99.90;;;;;;5229687;28;20252;-57
2021/08/08 08:00:35;;;;;;;2.30;1.70;;;21.70;99.90;;;;;;5229693;28;20295;-64
2021/08/08 08:03:11;;;;;;;4.55;1.88;;;22.00;99.90;;;;;;5229960;28;20621;-64
2021/08/08 08:05:43;;;;;;;3.67;1.80;;;22.00;99.90;;;;;;5231020;28;20324;-63
2021/08/08 08:08:18;;;;;;;4.97;1.85;;;22.20;99.90;;;;;;5230430;28;20205;-64
2021/08/08 08:10:51;;;;;;;2.50;1.80;;;22.40;99.90;;;;;;5230353;28;20235;-66
2021/08/08 08:13:25;;;;;;;1.77;1.38;;;22.50;99.90;;;;;;5229822;28;20205;-60
2021/08/08 08:15:57;;;;;;;3.03;2.15;;;22.60;99.90;;;;;;5230688;28;20224;-62
2021/08/08 08:18:29;;;;;;;2.47;1.67;;;22.90;99.90;;;;;;5230407;28;20209;-65
2021/08/08 08:21:02;;;;;;;4.63;1.80;;;23.00;99.90;;;;;;5230353;28;20241;-65
2021/08/08 08:23:34;;;;;;;3.67;1.63;;;23.10;99.90;;;;;;5230490;28;20225;-67
2021/08/08 08:26:06;;;;;;;3.63;1.60;;;23.20;99.90;;;;;;5212971;28;20308;-60
2021/08/08 08:28:37;;;;;;;4.55;2.08;;;23.30;99.90;;;;;;5229919;28;20206;-63
2021/08/08 08:31:10;;;;;;;2.70;1.55;;;23.10;99.90;;;;;;5228928;28;20230;-62
2021/08/08 08:33:42;;;;;;;2.70;1.70;;;23.30;99.90;;;;;;5230207;28;20206;-63
2021/08/08 08:36:13;;;;;;;3.33;1.83;;;23.30;99.90;;;;;;5228808;28;20221;-63
2021/08/08 08:38:46;;;;;;;3.80;1.85;;;23.30;99.90;;;;;;5229844;28;20198;-59
2021/08/08 08:41:27;;;;;;;4.35;2.05;;;23.40;99.90;;;;;;5228651;28;20240;-62
2021/08/08 08:44:00;;;;;;;2.88;1.88;;;23.60;99.90;;;;;;5230756;28;20557;-63
2021/08/08 08:46:36;;;;;;;3.03;2.03;;;23.80;99.90;;;;;;5230636;28;20229;-63
2021/08/08 08:49:10;;;;;;;2.95;1.73;;;23.70;99.90;;;;;;5228555;28;20197;-63
2021/08/08 08:51:49;;;;;;;2.40;1.90;;;23.50;99.90;;;;;;5229240;28;20229;-63
2021/08/08 08:54:22;;;;;;;2.83;1.92;;;23.30;99.90;;;;;;5229969;28;20197;-65
2021/08/08 08:56:56;;;;;;;3.60;2.10;;;23.30;99.90;;;;;;5228617;28;20610;-65
2021/08/08 08:59:32;;;;;;;2.42;1.80;;;23.20;99.90;;;;;;5212063;28;20232;-63
2021/08/08 09:02:04;;;;;;;1.77;1.63;;;23.30;99.90;;;;;;5228746;28;20247;-64
2021/08/08 09:04:36;;;;;;;3.03;1.90;;;23.50;99.90;;;;;;5229374;28;20548;-63
2021/08/08 09:07:09;;;;;;;2.70;2.10;;;23.60;99.90;;;;;;5211791;28;20343;-61
2021/08/08 09:09:41;;;;;;;2.22;1.63;;;23.70;99.90;;;;;;5245190;28;20201;-62
2021/08/08 09:12:23;;;;;;;2.92;2.00;;;23.60;99.90;;;;;;5229312;28;20304;-64
2021/08/08 09:15:03;;;;;;;3.00;1.95;;;23.50;99.90;;;;;;5229731;28;20205;-59
2021/08/08 09:17:37;;;;;;;3.10;2.00;;;23.40;99.90;;;;;;5229136;28;20239;-65
2021/08/08 09:20:12;;;;;;;1.90;1.70;;;23.30;99.90;;;;;;5229500;28;20208;-62
2021/08/08 09:22:43;;;;;;;2.65;1.52;;;23.30;99.90;;;;;;5228489;28;20208;-60
2021/08/08 09:25:22;;;;;;;2.75;1.70;;;23.10;99.90;;;;;;5228073;28;20260;-62
2021/08/08 09:28:06;;;;;;;4.07;1.90;;;22.80;99.90;;;;;;5229207;28;20208;-60
2021/08/08 09:30:40;;;;;;;3.80;1.60;;;22.60;99.90;;;;;;5228988;28;20181;-65
2021/08/08 09:33:14;;;;;;;2.50;1.77;;;22.60;99.90;;;;;;5229191;28;20266;-66
2021/08/08 09:35:49;;;;;;;3.03;1.85;;;22.70;99.90;;;;;;5228565;28;20236;-63
2021/08/08 09:38:22;;;;;;;2.10;1.90;;;22.80;99.90;;;;;;5229167;28;20254;-59
2021/08/08 09:41:01;;;;;;;2.42;1.75;;;23.00;99.90;;;;;;5228830;28;20224;-64
2021/08/08 09:43:33;;;;;;;3.30;1.65;;;23.30;99.90;;;;;;5228171;28;20529;-62
2021/08/08 09:46:16;;;;;;;2.63;1.63;;;23.50;99.90;;;;;;5227984;28;20327;-63
2021/08/08 09:48:49;;;;;;;3.22;2.00;;;23.70;99.90;;;;;;5228932;28;20201;-63
2021/08/08 09:51:21;;;;;;;2.42;1.73;;;23.90;99.90;;;;;;5228102;28;20586;-64
2021/08/08 09:53:55;;;;;;;2.55;1.90;;;24.00;99.90;;;;;;5229080;28;20212;-52
2021/08/08 09:56:27;;;;;;;2.67;1.83;;;24.10;99.90;;;;;;5228555;28;20213;-57
2021/08/08 09:59:06;;;;;;;3.85;2.13;;;24.30;99.90;;;;;;5228657;28;20241;-52
2021/08/08 10:01:39;;;;;;;2.67;2.20;;;24.50;99.90;;;;;;5233086;28;20208;-57
2021/08/08 10:04:11;;;;;;;2.60;2.00;;;24.60;99.90;;;;;;5232246;28;20478;-50
2021/08/08 10:06:45;;;;;;;2.90;1.80;;;24.50;99.90;;;;;;5248304;28;20501;-50
2021/08/08 10:09:17;;;;;;;2.30;1.90;;;24.20;99.90;;;;;;5232410;28;20198;-48
2021/08/08 10:11:51;;;;;;;2.75;1.92;;;24.00;99.90;;;;;;5232951;28;20216;-50
2021/08/08 10:14:23;;;;;;;3.33;2.08;;;23.80;99.90;;;;;;5232714;28;20194;-53
2021/08/08 10:16:55;;;;;;;2.60;2.00;;;23.80;99.90;;;;;;5231946;28;20205;-51
2021/08/08 10:19:28;;;;;;;3.13;1.80;;;23.90;99.90;;;;;;5232423;28;20212;-54
2021/08/08 10:22:00;;;;;;;2.22;1.90;;;24.00;99.90;;;;;;5231698;28;20628;-55
2021/08/08 10:24:35;;;;;;;3.13;2.03;;;23.80;99.90;;;;;;5233009;28;20217;-53
2021/08/08 10:27:08;;;;;;;2.90;2.00;;;23.80;99.90;;;;;;5232559;28;20229;-52
2021/08/08 10:29:40;;;;;;;3.33;2.00;;;23.80;99.90;;;;;;5232539;28;20212;-59
2021/08/08 10:32:12;;;;;;;3.35;2.13;;;23.80;99.90;;;;;;5232601;28;20554;-53
2021/08/08 10:34:44;;;;;;;3.40;2.08;;;23.90;99.90;;;;;;5231435;28;20209;-52
2021/08/08 10:37:23;;;;;;;3.85;1.70;;;24.00;99.90;;;;;;5231546;28;20233;-57
2021/08/08 10:39:55;;;;;;;2.08;1.42;;;23.90;99.90;;;;;;5232282;28;20204;-47
2021/08/08 10:42:27;;;;;;;2.47;1.70;;;23.70;99.90;;;;;;5231921;28;20240;-55
2021/08/08 10:45:01;;;;;;;2.10;1.65;;;23.70;99.90;;;;;;5230964;28;20225;-50
2021/08/08 10:47:34;;;;;;;3.28;1.70;;;23.70;99.90;;;;;;5231563;28;20233;-50
2021/08/08 10:50:07;;;;;;;2.42;1.50;;;23.90;99.90;;;;;;5232220;28;20201;-51
2021/08/08 10:52:40;;;;;;;2.70;1.63;;;24.00;99.90;;;;;;5231828;28;20535;-53
2021/08/08 10:55:27;;;;;;;2.50;2.00;;;24.20;99.90;;;;;;5232221;28;20548;-48
2021/08/08 10:58:02;;;;;;;2.05;1.67;;;24.20;99.90;;;;;;5231574;28;20264;-50
2021/08/08 11:00:36;;;;;;;2.30;1.77;;;24.20;99.90;;;;;;5231991;28;20223;-56
2021/08/08 11:03:17;;;;;;;4.07;1.90;;;24.30;99.90;;;;;;5232160;28;20229;-58
2021/08/08 11:05:50;;;;;;;3.33;2.00;;;24.30;99.90;;;;;;5232028;28;20210;-54
2021/08/08 11:08:24;;;;;;;2.30;2.10;;;24.30;99.90;;;;;;5231990;28;20711;-52
2021/08/08 11:10:56;;;;;;;2.67;1.85;;;24.50;99.90;;;;;;5213848;28;20204;-53
2021/08/08 11:13:28;;;;;;;5.43;2.20;;;24.80;99.90;;;;;;5231405;28;20241;-50
2021/08/08 11:16:13;;;;;;;2.60;1.90;;;24.70;99.90;;;;;;5231291;28;20201;-62
2021/08/08 11:18:56;;;;;;;2.47;2.28;;;24.80;99.90;;;;;;5231798;28;20264;-61
2021/08/08 11:21:28;;;;;;;2.88;1.90;;;24.80;99.90;;;;;;5231444;28;20224;-60
2021/08/08 11:24:04;;;;;;;2.80;2.00;;;24.80;99.90;;;;;;5230681;28;20233;-62
2021/08/08 11:26:36;;;;;;;1.98;1.77;;;24.70;99.90;;;;;;5229972;28;20556;-62
2021/08/08 11:29:09;;;;;;;2.70;2.20;;;24.60;99.90;;;;;;5231435;28;20294;-59
2021/08/08 11:31:41;;;;;;;3.47;2.22;;;24.60;99.90;;;;;;5230514;28;20287;-65
2021/08/08 11:34:13;;;;;;;3.38;2.30;;;24.50;99.90;;;;;;5230895;28;20222;-68
2021/08/08 11:36:47;;;;;;;2.85;2.45;;;24.60;99.90;;;;;;5230209;28;20217;-63
2021/08/08 11:39:19;;;;;;;5.05;2.30;;;24.60;99.90;;;;;;5230465;28;20679;-64
2021/08/08 11:41:58;;;;;;;2.95;2.47;;;24.50;99.90;;;;;;5229843;28;20202;-61
2021/08/08 11:44:41;;;;;;;3.50;2.35;;;24.50;99.90;;;;;;5230899;28;20681;-60
2021/08/08 11:47:26;;;;;;;2.78;2.28;;;24.40;99.90;;;;;;5230240;28;20647;-62
2021/08/08 11:49:58;;;;;;;3.10;2.47;;;24.50;99.90;;;;;;5231001;28;20550;-62
2021/08/08 11:52:30;;;;;;;3.85;2.75;;;24.50;99.90;;;;;;5229993;28;20660;-64
2021/08/08 11:55:07;;;;;;;4.90;2.60;;;24.50;99.90;;;;;;5229836;28;20279;-58
2021/08/08 11:57:42;;;;;;;4.35;2.50;;;24.60;99.90;;;;;;5213477;28;20209;-60
2021/08/08 12:00:15;;;;;;;3.38;2.40;;;24.50;99.90;;;;;;5230930;28;20198;-60
2021/08/08 12:02:47;;;;;;;2.75;2.42;;;24.70;99.90;;;;;;5229923;28;20213;-64
2021/08/08 12:05:22;;;;;;;4.00;2.42;;;24.80;99.90;;;;;;5230817;28;20221;-62
2021/08/08 12:07:55;;;;;;;3.88;2.70;;;24.80;99.90;;;;;;5230180;28;20236;-60
2021/08/08 12:10:38;;;;;;;3.72;2.47;;;24.90;99.90;;;;;;5231242;28;20201;-60
2021/08/08 12:13:17;;;;;;;2.92;2.40;;;24.80;99.90;;;;;;5235021;28;20193;-64
2021/08/08 12:15:49;;;;;;;3.22;2.47;;;24.60;99.90;;;;;;5229633;28;20520;-63
2021/08/08 12:18:30;;;;;;;3.75;2.53;;;24.50;99.90;;;;;;5229319;28;20224;-56
2021/08/08 12:21:12;;;;;;;4.65;2.80;;;24.30;99.90;;;;;;5230652;28;20616;-61
2021/08/08 12:23:45;;;;;;;4.57;3.00;;;24.00;99.90;;;;;;5228107;28;20241;-60
2021/08/08 12:26:26;;;;;;;4.80;2.58;;;24.00;99.90;;;;;;5230371;28;20225;-61
2021/08/08 12:29:05;;;;;;;7.45;3.05;;;24.00;99.90;;;;;;5229442;28;20237;-61
2021/08/08 12:31:41;;;;;;;3.15;2.63;;;24.20;99.90;;;;;;5229967;28;20220;-60
2021/08/08 12:34:14;;;;;;;3.05;2.55;;;24.40;99.90;;;;;;5229937;28;20276;-61
2021/08/08 12:36:48;;;;;;;3.20;2.90;;;24.60;99.90;;;;;;5228979;28;20216;-60
2021/08/08 12:39:26;;;;;;;3.70;2.90;;;24.60;99.90;;;;;;5229669;28;20228;-61
2021/08/08 12:42:02;;;;;;;3.60;3.05;;;24.80;99.90;;;;;;5229478;28;20194;-60
2021/08/08 12:44:37;;;;;;;4.30;2.72;;;24.90;99.90;;;;;;5226593;28;20274;-60
2021/08/08 12:47:12;;;;;;;3.60;2.55;;;24.90;99.90;;;;;;5229148;28;20271;-59
2021/08/08 12:49:49;;;;;;;3.70;2.70;;;24.90;99.90;;;;;;5228739;28;20232;-62
2021/08/08 12:52:23;;;;;;;3.13;2.80;;;24.90;99.90;;;;;;5228802;28;20208;-61
2021/08/08 12:54:58;;;;;;;4.38;2.80;;;25.00;99.90;;;;;;5229771;28;20225;-62
2021/08/08 12:57:30;;;;;;;3.80;3.00;;;25.00;99.90;;;;;;5211751;28;20201;-65
2021/08/08 13:00:03;;;;;;;4.15;3.08;;;24.80;99.90;;;;;;5229629;28;20648;-62
2021/08/08 13:02:35;;;;;;;4.20;2.92;;;24.80;99.90;;;;;;5229490;28;20549;-62
2021/08/08 13:05:08;;;;;;;5.30;3.20;;;24.90;99.90;;;;;;5228133;28;20233;-62
2021/08/08 13:07:42;;;;;;;4.45;2.88;;;25.10;99.90;;;;;;5228477;28;20575;-60
2021/08/08 13:10:17;;;;;;;3.08;2.88;;;25.10;99.90;;;;;;5229088;28;20311;-60
2021/08/08 13:12:50;;;;;;;5.97;2.97;;;25.10;99.90;;;;;;5229780;28;20201;-63
2021/08/08 13:15:22;;;;;;;3.75;3.20;;;25.30;99.90;;;;;;5229157;28;20225;-61
2021/08/08 13:17:55;;;;;;;3.75;2.97;;;25.30;99.90;;;;;;5229335;28;20205;-60
2021/08/08 13:20:29;;;;;;;3.50;2.80;;;25.40;99.90;;;;;;5244428;28;20641;-63